createdAt,value
2023-04-16T00:01:14.101Z,9.40
2023-04-16T00:04:15.959Z,9.30
2023-04-16T00:07:32.141Z,9.23
2023-04-16T00:10:42.127Z,9.16
2023-04-16T00:14:00.154Z,9.14
2023-04-16T00:17:08.289Z,9.14
2023-04-16T00:20:33.281Z,9.09
2023-04-16T00:23:42.113Z,9.19
2023-04-16T00:26:57.151Z,9.12
2023-04-16T00:29:58.802Z,9.13
2023-04-16T00:33:13.125Z,9.09
2023-04-16T00:36:30.121Z,9.10
2023-04-16T00:39:38.156Z,9.17
2023-04-16T00:42:46.629Z,9.15
2023-04-16T00:45:55.212Z,9.18
2023-04-16T00:49:03.962Z,9.15
2023-04-16T00:52:18.155Z,9.10
2023-04-16T00:55:20.490Z,9.05
2023-04-16T00:58:36.945Z,9.04
2023-04-16T01:01:38.575Z,9.03
2023-04-16T01:04:53.172Z,9.01
2023-04-16T01:08:05.137Z,9.05
2023-04-16T01:11:14.827Z,9.03
2023-04-16T01:14:30.149Z,9.04
2023-04-16T01:17:45.237Z,9.04
2023-04-16T01:21:00.142Z,9.00
2023-04-16T01:24:04.265Z,9.03
2023-04-16T01:27:22.156Z,8.85
2023-04-16T01:30:23.879Z,8.91
2023-04-16T01:33:38.208Z,8.98
2023-04-16T01:36:40.213Z,8.96
2023-04-16T01:39:57.230Z,8.97
2023-04-16T01:43:05.166Z,8.96
2023-04-16T01:46:25.178Z,8.95
2023-04-16T01:49:34.190Z,8.88
2023-04-16T01:52:42.902Z,8.90
2023-04-16T01:55:57.166Z,8.83
2023-04-16T01:59:05.720Z,8.71
2023-04-16T02:02:17.256Z,8.80
2023-04-16T02:05:32.161Z,8.78
2023-04-16T02:08:47.774Z,8.76
2023-04-16T02:11:56.545Z,8.73
2023-04-16T02:15:13.204Z,8.76
2023-04-16T02:18:29.195Z,8.77
2023-04-16T02:21:46.334Z,8.76
2023-04-16T02:24:54.205Z,8.80
2023-04-16T02:28:02.718Z,8.77
2023-04-16T02:31:12.487Z,8.77
2023-04-16T02:34:21.169Z,8.74
2023-04-16T02:37:36.215Z,8.76
2023-04-16T02:40:44.689Z,8.77
2023-04-16T02:43:53.196Z,8.78
2023-04-16T02:47:01.705Z,8.76
2023-04-16T02:50:10.228Z,8.78
2023-04-16T02:53:19.392Z,8.71
2023-04-16T02:56:27.178Z,8.71
2023-04-16T02:59:42.196Z,8.66
2023-04-16T03:02:57.298Z,8.69
2023-04-16T03:06:06.345Z,8.66
2023-04-16T03:09:15.198Z,8.66
2023-04-16T03:12:23.683Z,8.70
2023-04-16T03:15:32.281Z,8.70
2023-04-16T03:18:54.214Z,8.69
2023-04-16T03:21:57.009Z,8.74
2023-04-16T03:25:11.322Z,8.74
2023-04-16T03:28:26.456Z,8.80
2023-04-16T03:31:35.208Z,8.77
2023-04-16T03:34:43.931Z,8.80
2023-04-16T03:37:58.503Z,8.79
2023-04-16T03:41:00.250Z,8.75
2023-04-16T03:44:15.237Z,8.70
2023-04-16T03:47:16.900Z,8.68
2023-04-16T03:50:32.374Z,8.65
2023-04-16T03:57:08.143Z,8.70
2023-04-16T04:00:16.264Z,8.69
2023-04-16T04:03:31.361Z,8.70
2023-04-16T04:06:46.239Z,8.75
2023-04-16T04:09:55.493Z,8.76
2023-04-16T04:13:12.250Z,8.75
2023-04-16T04:16:23.257Z,8.79
2023-04-16T04:19:42.334Z,8.80
2023-04-16T04:22:57.528Z,8.80
2023-04-16T04:26:05.828Z,8.86
2023-04-16T04:29:15.339Z,8.89
2023-04-16T04:32:30.307Z,8.90
2023-04-16T04:35:38.238Z,8.91
2023-04-16T04:38:53.277Z,8.90
2023-04-16T04:41:54.975Z,8.88
2023-04-16T04:45:12.282Z,8.84
2023-04-16T04:48:21.069Z,8.79
2023-04-16T04:51:35.312Z,8.86
2023-04-16T04:54:36.971Z,8.89
2023-04-16T05:01:17.340Z,8.97
2023-04-16T05:04:25.963Z,8.98
2023-04-16T05:07:34.311Z,9.00
2023-04-16T05:14:12.007Z,9.13
2023-04-16T05:17:28.526Z,9.09
2023-04-16T05:20:43.260Z,9.05
2023-04-16T05:23:51.823Z,9.00
2023-04-16T05:27:01.241Z,9.06
2023-04-16T05:30:16.287Z,9.11
2023-04-16T05:33:24.658Z,9.18
2023-04-16T05:36:39.302Z,9.19
2023-04-16T05:39:47.920Z,9.24
2023-04-16T05:42:56.381Z,9.28
2023-04-16T05:46:04.894Z,9.26
2023-04-16T05:49:13.299Z,9.36
2023-04-16T05:52:28.282Z,9.30
2023-04-16T05:55:36.594Z,9.36
2023-04-16T05:58:51.308Z,9.41
2023-04-16T06:01:52.993Z,9.42
2023-04-16T06:05:07.366Z,9.45
2023-04-16T06:08:17.289Z,9.46
2023-04-16T06:11:25.930Z,9.46
2023-04-16T06:14:34.337Z,9.49
2023-04-16T06:17:50.588Z,9.46
2023-04-16T06:20:59.316Z,9.39
2023-04-16T06:24:14.317Z,9.57
2023-04-16T06:27:15.986Z,9.73
2023-04-16T06:30:41.153Z,9.92
2023-04-16T06:33:44.690Z,10.07
2023-04-16T06:37:00.357Z,10.30
2023-04-16T06:40:08.310Z,10.32
2023-04-16T06:43:23.347Z,10.44
2023-04-16T06:46:39.376Z,10.44
2023-04-16T06:50:07.127Z,10.60
2023-04-16T06:53:15.352Z,10.67
2023-04-16T06:56:30.617Z,10.82
2023-04-16T06:59:32.687Z,10.96
2023-04-16T07:02:48.527Z,10.94
2023-04-16T07:05:52.527Z,11.00
2023-04-16T07:09:07.384Z,11.06
2023-04-16T07:12:22.998Z,10.98
2023-04-16T07:15:30.908Z,11.09
2023-04-16T07:18:46.305Z,11.23
2023-04-16T07:22:01.678Z,11.33
2023-04-16T07:25:03.669Z,11.61
2023-04-16T07:28:18.333Z,11.60
2023-04-16T07:31:20.120Z,11.76
2023-04-16T07:34:53.152Z,11.83
2023-04-16T07:38:13.419Z,11.89
2023-04-16T07:41:23.978Z,12.02
2023-04-16T07:44:44.345Z,12.12
2023-04-16T07:47:59.429Z,12.16
2023-04-16T07:51:04.189Z,11.94
2023-04-16T07:54:19.329Z,12.14
2023-04-16T07:57:27.568Z,12.12
2023-04-16T08:00:39.613Z,12.31
2023-04-16T08:03:49.458Z,12.25
2023-04-16T08:07:00.916Z,12.32
2023-04-16T08:10:15.333Z,12.22
2023-04-16T08:13:24.163Z,12.22
2023-04-16T08:16:32.346Z,12.56
2023-04-16T08:19:55.072Z,13.01
2023-04-16T08:22:57.056Z,13.22
2023-04-16T08:26:11.372Z,13.17
2023-04-16T08:29:25.801Z,13.36
2023-04-16T08:32:40.741Z,13.29
2023-04-16T08:35:56.386Z,13.39
2023-04-16T08:39:04.904Z,13.45
2023-04-16T08:42:39.731Z,13.31
2023-04-16T08:45:43.709Z,13.25
2023-04-16T08:49:04.213Z,13.40
2023-04-16T08:52:15.397Z,13.45
2023-04-16T08:55:30.845Z,13.54
2023-04-16T08:58:39.383Z,13.69
2023-04-16T09:01:51.039Z,13.87
2023-04-16T09:05:00.464Z,14.12
2023-04-16T09:08:12.491Z,14.27
2023-04-16T09:11:30.410Z,14.59
2023-04-16T09:14:50.514Z,14.69
2023-04-16T09:18:13.400Z,14.57
2023-04-16T09:21:24.110Z,14.41
2023-04-16T09:24:36.105Z,14.17
2023-04-16T09:27:44.380Z,14.08
2023-04-16T09:31:07.945Z,14.03
2023-04-16T09:34:16.424Z,13.95
2023-04-16T09:37:27.650Z,13.95
2023-04-16T09:40:38.310Z,13.91
2023-04-16T09:44:06.422Z,13.97
2023-04-16T09:47:18.401Z,13.92
2023-04-16T09:50:30.442Z,13.80
2023-04-16T09:53:45.387Z,13.89
2023-04-16T09:56:50.172Z,14.00
2023-04-16T10:00:09.419Z,14.18
2023-04-16T10:03:17.513Z,14.73
2023-04-16T10:06:35.429Z,15.10
2023-04-16T10:09:39.935Z,15.28
2023-04-16T10:12:54.498Z,15.45
2023-04-16T10:15:56.742Z,15.66
2023-04-16T10:19:11.898Z,15.85
2023-04-16T10:22:13.869Z,16.17
2023-04-16T10:25:29.648Z,16.73
2023-04-16T10:28:31.937Z,17.16
2023-04-16T10:31:51.454Z,17.50
2023-04-16T10:35:01.100Z,18.75
2023-04-16T10:38:28.422Z,20.12
2023-04-16T10:41:39.457Z,20.88
2023-04-16T10:44:54.809Z,20.55
2023-04-16T10:48:13.723Z,22.07
2023-04-16T10:51:42.681Z,22.33
2023-04-16T10:54:59.493Z,22.85
2023-04-16T10:58:09.831Z,23.63
2023-04-16T11:01:18.075Z,23.89
2023-04-16T11:04:41.907Z,24.31
2023-04-16T11:07:56.702Z,21.94
2023-04-16T11:10:58.676Z,23.86
2023-04-16T11:14:15.473Z,25.97
2023-04-16T11:17:24.492Z,25.58
2023-04-16T11:20:47.461Z,25.98
2023-04-16T11:23:57.541Z,23.81
2023-04-16T11:27:08.095Z,24.19
2023-04-16T11:30:16.492Z,21.34
2023-04-16T11:33:31.432Z,19.77
2023-04-16T11:36:49.045Z,19.23
2023-04-16T11:39:58.476Z,19.00
2023-04-16T11:43:22.515Z,18.57
2023-04-16T11:46:39.207Z,18.01
2023-04-16T11:49:53.758Z,18.19
2023-04-16T11:53:04.470Z,17.83
2023-04-16T11:56:19.521Z,17.73
2023-04-16T11:59:26.344Z,17.60
2023-04-16T12:02:47.781Z,17.61
2023-04-16T12:05:49.548Z,17.77
2023-04-16T12:09:05.353Z,17.54
2023-04-16T12:12:32.123Z,17.81
2023-04-16T12:15:46.901Z,18.16
2023-04-16T12:19:06.515Z,18.43
2023-04-16T12:22:15.309Z,18.63
2023-04-16T12:25:24.591Z,18.92
2023-04-16T12:28:35.182Z,18.80
2023-04-16T12:31:50.534Z,18.63
2023-04-16T12:34:58.550Z,18.65
2023-04-16T12:38:07.401Z,18.45
2023-04-16T12:41:23.163Z,18.44
2023-04-16T12:44:26.433Z,17.96
2023-04-16T12:47:45.557Z,18.07
2023-04-16T12:50:54.274Z,18.11
2023-04-16T12:54:10.813Z,18.21
2023-04-16T12:57:12.483Z,18.46
2023-04-16T13:00:28.616Z,18.58
2023-04-16T13:03:37.513Z,18.65
2023-04-16T13:06:46.826Z,18.80
2023-04-16T13:10:01.508Z,18.85
2023-04-16T13:13:09.628Z,18.86
2023-04-16T13:16:24.850Z,18.79
2023-04-16T13:19:34.672Z,18.62
2023-04-16T13:22:49.549Z,18.54
2023-04-16T13:25:57.556Z,18.52
2023-04-16T13:29:06.013Z,18.37
2023-04-16T13:32:15.633Z,18.26
2023-04-16T13:35:31.551Z,18.03
2023-04-16T13:38:39.561Z,18.00
2023-04-16T13:41:54.543Z,18.12
2023-04-16T13:44:56.337Z,18.12
2023-04-16T13:48:11.841Z,18.16
2023-04-16T13:51:19.573Z,18.11
2023-04-16T13:54:31.685Z,18.02
2023-04-16T13:57:47.584Z,18.07
2023-04-16T14:01:05.608Z,17.97
2023-04-16T14:04:14.771Z,18.09
2023-04-16T14:07:29.633Z,17.96
2023-04-16T14:10:38.563Z,17.81
2023-04-16T14:13:47.266Z,17.84
2023-04-16T14:16:55.620Z,17.76
2023-04-16T14:20:19.593Z,17.69
2023-04-16T14:23:34.569Z,17.61
2023-04-16T14:26:42.590Z,17.48
2023-04-16T14:29:51.178Z,17.34
2023-04-16T14:32:59.582Z,17.30
2023-04-16T14:36:08.245Z,17.29
2023-04-16T14:39:22.552Z,17.25
2023-04-16T14:42:30.609Z,17.28
2023-04-16T14:45:45.626Z,17.24
2023-04-16T14:48:47.770Z,17.13
2023-04-16T14:52:02.675Z,17.11
2023-04-16T14:55:11.738Z,17.10
2023-04-16T14:58:21.905Z,17.02
2023-04-16T15:01:36.640Z,16.83
2023-04-16T15:04:44.641Z,16.89
2023-04-16T15:07:59.713Z,16.95
2023-04-16T15:11:01.441Z,17.13
2023-04-16T15:14:16.627Z,17.18
2023-04-16T15:17:18.397Z,17.14
2023-04-16T15:20:39.620Z,17.14
2023-04-16T15:23:54.615Z,17.17
2023-04-16T15:26:56.252Z,17.16
2023-04-16T15:30:11.949Z,17.24
2023-04-16T15:33:14.694Z,17.23
2023-04-16T15:36:29.957Z,17.20
2023-04-16T15:39:38.355Z,17.25
2023-04-16T15:42:46.690Z,17.24
2023-04-16T15:46:02.750Z,17.33
2023-04-16T15:49:19.942Z,17.26
2023-04-16T15:52:22.008Z,17.18
2023-04-16T15:55:36.646Z,17.12
2023-04-16T15:58:45.326Z,16.96
2023-04-16T16:01:54.808Z,16.92
2023-04-16T16:05:03.448Z,16.85
2023-04-16T16:08:17.672Z,16.79
2023-04-16T16:11:25.683Z,16.74
2023-04-16T16:14:41.381Z,16.56
2023-04-16T16:17:49.667Z,16.60
2023-04-16T16:21:04.994Z,16.54
2023-04-16T16:24:13.691Z,16.53
2023-04-16T16:27:22.206Z,16.52
2023-04-16T16:30:30.636Z,16.53
2023-04-16T16:33:45.784Z,16.52
2023-04-16T16:36:47.758Z,16.54
2023-04-16T16:40:02.682Z,16.58
2023-04-16T16:43:04.591Z,16.58
2023-04-16T16:46:19.706Z,16.58
2023-04-16T16:49:21.818Z,16.57
2023-04-16T16:52:36.726Z,16.56
2023-04-16T16:55:44.686Z,16.55
2023-04-16T16:58:53.408Z,16.53
2023-04-16T17:02:01.845Z,16.50
2023-04-16T17:05:17.013Z,16.49
2023-04-16T17:08:28.261Z,16.43
2023-04-16T17:11:42.666Z,16.40
2023-04-16T17:14:47.757Z,16.38
2023-04-16T17:18:03.680Z,16.35
2023-04-16T17:21:20.226Z,16.29
2023-04-16T17:24:35.134Z,16.25
2023-04-16T17:27:39.327Z,16.20
2023-04-16T17:30:58.001Z,16.15
2023-04-16T17:33:59.668Z,16.04
2023-04-16T17:37:14.689Z,15.97
2023-04-16T17:40:22.711Z,15.92
2023-04-16T17:43:37.722Z,15.85
2023-04-16T17:46:46.050Z,15.83
2023-04-16T17:50:00.742Z,15.78
2023-04-16T17:53:02.766Z,15.77
2023-04-16T17:56:19.770Z,15.74
2023-04-16T17:59:28.238Z,15.67
2023-04-16T18:02:36.797Z,15.61
2023-04-16T18:05:51.717Z,15.57
2023-04-16T18:08:59.721Z,15.49
2023-04-16T18:12:08.358Z,15.43
2023-04-16T18:15:22.716Z,15.45
2023-04-16T18:18:30.835Z,15.45
2023-04-16T18:21:52.768Z,15.44
2023-04-16T18:24:54.897Z,15.43
2023-04-16T18:28:09.770Z,15.40
2023-04-16T18:31:12.415Z,15.39
2023-04-16T18:34:26.779Z,15.36
2023-04-16T18:37:35.258Z,15.33
2023-04-16T18:40:44.071Z,15.27
2023-04-16T18:43:52.266Z,15.29
2023-04-16T18:47:01.550Z,15.22
2023-04-16T18:50:10.528Z,15.17
2023-04-16T18:53:24.961Z,15.07
2023-04-16T18:56:29.149Z,15.06
2023-04-16T18:59:43.743Z,14.93
2023-04-16T19:02:45.536Z,14.87
2023-04-16T19:06:01.735Z,14.85
2023-04-16T19:09:11.685Z,14.82
2023-04-16T19:12:19.838Z,14.78
2023-04-16T19:15:35.044Z,14.76
2023-04-16T19:18:37.865Z,14.74
2023-04-16T19:21:59.883Z,14.73
2023-04-16T19:25:16.038Z,14.69
2023-04-16T19:28:31.735Z,14.74
2023-04-16T19:31:39.798Z,14.76
2023-04-16T19:34:54.750Z,14.79
2023-04-16T19:37:56.526Z,14.78
2023-04-16T19:41:10.741Z,14.84
2023-04-16T19:44:19.281Z,14.80
2023-04-16T19:47:33.860Z,14.80
2023-04-16T19:50:44.758Z,14.83
2023-04-16T19:53:53.761Z,14.85
2023-04-16T19:57:01.785Z,14.86
2023-04-16T20:00:10.767Z,14.87
2023-04-16T20:03:26.012Z,14.85
2023-04-16T20:06:31.381Z,14.84
2023-04-16T20:09:45.803Z,14.86
2023-04-16T20:12:47.874Z,14.87
2023-04-16T20:16:02.831Z,14.84
2023-04-16T20:19:12.282Z,14.83
2023-04-16T20:22:26.850Z,14.81
2023-04-16T20:25:28.511Z,14.84
2023-04-16T20:28:42.829Z,14.86
2023-04-16T20:31:54.014Z,14.86
2023-04-16T20:35:02.386Z,14.81
2023-04-16T20:38:16.845Z,14.85
2023-04-16T20:41:19.405Z,14.85
2023-04-16T20:44:44.829Z,14.85
2023-04-16T20:47:52.826Z,14.86
2023-04-16T20:51:02.733Z,14.86
2023-04-16T20:54:10.829Z,14.83
2023-04-16T20:57:25.869Z,14.84
2023-04-16T21:00:27.601Z,14.86
2023-04-16T21:03:42.056Z,14.87
2023-04-16T21:06:43.921Z,14.88
2023-04-16T21:09:58.807Z,14.87
2023-04-16T21:13:03.699Z,14.85
2023-04-16T21:16:18.910Z,14.82
2023-04-16T21:19:27.839Z,14.78
2023-04-16T21:22:36.437Z,14.80
2023-04-16T21:25:51.556Z,14.81
2023-04-16T21:28:59.894Z,14.77
2023-04-16T21:32:15.631Z,14.76
2023-04-16T21:35:23.313Z,14.71
2023-04-16T21:38:31.803Z,14.61
2023-04-16T21:41:40.417Z,14.54
2023-04-16T21:44:49.147Z,14.44
2023-04-16T21:47:57.455Z,14.31
2023-04-16T21:51:07.043Z,14.35
2023-04-16T21:54:18.490Z,14.31
2023-04-16T21:57:32.844Z,14.30
2023-04-16T22:00:41.559Z,14.33
2023-04-16T22:03:55.926Z,14.29
2023-04-16T22:07:13.877Z,14.31
2023-04-16T22:10:15.832Z,14.33
2023-04-16T22:13:30.841Z,14.39
2023-04-16T22:16:33.138Z,14.37
2023-04-16T22:19:47.891Z,14.38
2023-04-16T22:22:56.839Z,14.41
2023-04-16T22:26:05.719Z,14.44
2023-04-16T22:29:20.896Z,14.40
2023-04-16T22:32:30.209Z,14.38
2023-04-16T22:35:38.343Z,14.43
2023-04-16T22:38:46.916Z,14.43
2023-04-16T22:42:01.899Z,14.42
2023-04-16T22:45:10.860Z,14.40
2023-04-16T22:48:25.874Z,14.39
2023-04-16T22:51:40.916Z,14.34
2023-04-16T22:54:42.668Z,14.28
2023-04-16T22:57:56.878Z,14.30
2023-04-16T23:00:58.568Z,14.30
2023-04-16T23:04:13.033Z,14.37
2023-04-16T23:07:15.090Z,14.30
2023-04-16T23:10:29.848Z,14.32
2023-04-16T23:13:38.863Z,14.31
2023-04-16T23:16:47.561Z,14.29
2023-04-16T23:20:01.939Z,14.33
2023-04-16T23:23:03.709Z,14.34
2023-04-16T23:26:17.920Z,14.32
2023-04-16T23:29:19.955Z,14.34
2023-04-16T23:32:35.982Z,14.31
2023-04-16T23:35:43.999Z,14.29
2023-04-16T23:38:52.865Z,14.25
2023-04-16T23:42:00.925Z,14.25
2023-04-16T23:45:09.830Z,14.21
2023-04-16T23:48:17.880Z,14.19
2023-04-16T23:51:32.952Z,14.18
2023-04-16T23:54:34.673Z,14.18
2023-04-16T23:57:48.941Z,14.21
